createdAt,value
2023-01-07T00:02:56.263Z,98752.69
2023-01-07T00:06:05.698Z,98750.94
2023-01-07T00:09:08.444Z,98747.44
2023-01-07T00:12:09.969Z,98735.31
2023-01-07T00:15:12.596Z,98742.28
2023-01-07T00:18:14.114Z,98737.94
2023-01-07T00:21:16.931Z,98733.59
2023-01-07T00:24:18.804Z,98726.66
2023-01-07T00:27:20.367Z,98726.66
2023-01-07T00:30:21.896Z,98715.41
2023-01-07T00:33:23.742Z,98714.56
2023-01-07T00:36:27.324Z,98714.56
2023-01-07T00:39:28.873Z,98708.50
2023-01-07T00:42:48.982Z,98714.53
2023-01-07T00:45:51.024Z,98708.47
2023-01-07T00:48:52.550Z,98704.09
2023-01-07T00:51:54.077Z,98703.22
2023-01-07T00:54:55.593Z,98701.50
2023-01-07T00:57:57.190Z,98696.25
2023-01-07T01:01:00.368Z,98691.97
2023-01-07T01:04:02.575Z,98684.16
2023-01-07T01:07:04.081Z,98678.97
2023-01-07T01:10:06.896Z,98672.91
2023-01-07T01:13:10.567Z,98679.81
2023-01-07T01:16:14.332Z,98673.75
2023-01-07T01:19:15.913Z,98672.81
2023-01-07T01:22:17.398Z,98663.34
2023-01-07T01:25:19.039Z,98664.22
2023-01-07T01:28:20.532Z,98664.16
2023-01-07T01:31:22.115Z,98666.78
2023-01-07T01:34:23.674Z,98671.09
2023-01-07T01:37:25.177Z,98664.16
2023-01-07T01:40:29.686Z,98662.44
2023-01-07T01:43:40.134Z,98652.03
2023-01-07T01:46:42.079Z,98653.78
2023-01-07T01:50:08.035Z,98653.78
2023-01-07T01:53:09.529Z,98644.25
2023-01-07T01:56:12.556Z,98648.63
2023-01-07T01:59:17.890Z,98648.59
2023-01-07T02:02:31.728Z,98638.22
2023-01-07T02:05:35.325Z,98643.44
2023-01-07T02:08:36.845Z,98631.28
2023-01-07T02:11:59.549Z,98635.63
2023-01-07T02:15:00.950Z,98620.88
2023-01-07T02:18:05.063Z,98623.44
2023-01-07T02:21:29.694Z,98614.78
2023-01-07T02:24:49.441Z,98612.19
2023-01-07T02:27:56.959Z,98606.13
2023-01-07T02:31:25.665Z,98599.19
2023-01-07T02:34:41.925Z,98608.72
2023-01-07T02:37:51.813Z,98600.91
2023-01-07T02:41:07.927Z,98613.03
2023-01-07T02:44:14.988Z,98597.50
2023-01-07T02:47:45.742Z,98591.44
2023-01-07T02:50:47.279Z,98587.06
2023-01-07T02:53:48.796Z,98582.75
2023-01-07T02:57:10.492Z,98575.81
2023-01-07T03:00:39.563Z,98568.84
2023-01-07T03:03:46.873Z,98567.13
2023-01-07T03:07:15.499Z,98564.53
2023-01-07T03:10:22.535Z,98561.88
2023-01-07T03:13:25.770Z,98555.81
2023-01-07T03:16:32.148Z,98559.28
2023-01-07T03:19:35.707Z,98543.69
2023-01-07T03:22:37.211Z,98547.09
2023-01-07T03:25:45.574Z,98535.88
2023-01-07T03:28:47.099Z,98539.31
2023-01-07T03:32:02.962Z,98540.16
2023-01-07T03:35:05.632Z,98533.25
2023-01-07T03:38:07.159Z,98534.09
2023-01-07T03:41:08.724Z,98527.19
2023-01-07T03:44:10.227Z,98533.19
2023-01-07T03:47:11.845Z,98525.41
2023-01-07T03:50:13.421Z,98515.88
2023-01-07T03:53:14.964Z,98517.66
2023-01-07T03:56:16.480Z,98510.75
2023-01-07T03:59:18.046Z,98513.28
2023-01-07T04:02:19.560Z,98505.53
2023-01-07T04:05:21.081Z,98506.41
2023-01-07T04:08:22.574Z,98506.38
2023-01-07T04:11:24.209Z,98505.50
2023-01-07T04:14:25.815Z,98504.59
2023-01-07T04:17:27.377Z,98501.09
2023-01-07T04:20:28.899Z,98493.34
2023-01-07T04:23:30.419Z,98500.28
2023-01-07T04:26:33.799Z,98485.50
2023-01-07T04:29:35.347Z,98489.03
2023-01-07T04:32:36.878Z,98483.84
2023-01-07T04:35:39.293Z,98479.47
2023-01-07T04:38:40.713Z,98478.59
2023-01-07T04:41:42.233Z,98477.69
2023-01-07T04:44:43.774Z,98475.09
2023-01-07T04:47:45.328Z,98474.25
2023-01-07T04:50:47.590Z,98473.38
2023-01-07T04:53:49.131Z,98460.41
2023-01-07T04:56:50.810Z,98460.44
2023-01-07T04:59:52.347Z,98461.25
2023-01-07T05:02:53.872Z,98456.94
2023-01-07T05:05:55.390Z,98455.25
2023-01-07T05:08:57.025Z,98446.59
2023-01-07T05:11:58.545Z,98455.25
2023-01-07T05:15:00.053Z,98437.06
2023-01-07T05:18:01.612Z,98441.34
2023-01-07T05:21:03.511Z,98440.53
2023-01-07T05:24:05.129Z,98433.56
2023-01-07T05:27:06.685Z,98431.84
2023-01-07T05:30:08.589Z,98429.16
2023-01-07T05:33:10.128Z,98426.53
2023-01-07T05:36:11.976Z,98421.34
2023-01-07T05:39:13.534Z,98413.56
2023-01-07T05:42:15.043Z,98423.09
2023-01-07T05:45:16.615Z,98421.34
2023-01-07T05:48:18.094Z,98414.44
2023-01-07T05:51:19.766Z,98410.94
2023-01-07T05:54:21.281Z,98415.31
2023-01-07T05:57:22.773Z,98404.00
2023-01-07T06:00:24.302Z,98407.47
2023-01-07T06:03:25.868Z,98402.25
2023-01-07T06:06:27.433Z,98407.47
2023-01-07T06:09:29.997Z,98410.94
2023-01-07T06:12:31.567Z,98402.28
2023-01-07T06:15:33.150Z,98404.06
2023-01-07T06:18:35.290Z,98402.31
2023-01-07T06:21:36.969Z,98401.47
2023-01-07T06:24:38.751Z,98395.38
2023-01-07T06:27:43.214Z,98393.63
2023-01-07T06:30:47.701Z,98394.50
2023-01-07T06:33:49.301Z,98390.19
2023-01-07T06:36:51.555Z,98384.13
2023-01-07T06:39:53.134Z,98389.28
2023-01-07T06:42:54.633Z,98384.94
2023-01-07T06:45:56.353Z,98383.25
2023-01-07T06:48:58.119Z,98373.69
2023-01-07T06:51:59.656Z,98366.78
2023-01-07T06:55:01.419Z,98363.28
2023-01-07T06:58:02.919Z,98358.09
2023-01-07T07:01:07.911Z,98366.75
2023-01-07T07:04:09.549Z,98357.25
2023-01-07T07:07:11.079Z,98364.16
2023-01-07T07:10:12.775Z,98358.94
2023-01-07T07:13:14.278Z,98359.81
2023-01-07T07:16:15.864Z,98361.53
2023-01-07T07:19:17.521Z,98352.00
2023-01-07T07:22:19.189Z,98351.16
2023-01-07T07:25:20.801Z,98359.84
2023-01-07T07:28:22.401Z,98358.09
2023-01-07T07:31:24.156Z,98359.84
2023-01-07T07:34:25.853Z,98358.94
2023-01-07T07:37:27.528Z,98365.03
2023-01-07T07:40:29.373Z,98363.28
2023-01-07T07:43:30.976Z,98356.38
2023-01-07T07:46:32.634Z,98352.91
2023-01-07T07:49:34.291Z,98347.78
2023-01-07T07:52:35.891Z,98343.47
2023-01-07T07:55:41.104Z,98346.88
2023-01-07T07:58:43.283Z,98339.13
2023-01-07T08:01:44.961Z,98337.44
2023-01-07T08:04:46.927Z,98341.72
2023-01-07T08:07:48.536Z,98340.91
2023-01-07T08:10:50.191Z,98335.72
2023-01-07T08:13:51.858Z,98331.38
2023-01-07T08:16:53.765Z,98334.91
2023-01-07T08:19:55.379Z,98339.22
2023-01-07T08:23:00.820Z,98337.50
2023-01-07T08:26:03.072Z,98327.06
2023-01-07T08:29:04.568Z,98326.22
2023-01-07T08:32:06.182Z,98322.78
2023-01-07T08:35:08.117Z,98322.81
2023-01-07T08:38:09.743Z,98315.06
2023-01-07T08:41:11.278Z,98305.56
2023-01-07T08:44:12.811Z,98308.19
2023-01-07T08:47:14.561Z,98313.44
2023-01-07T08:50:16.199Z,98319.50
2023-01-07T08:53:20.956Z,98312.66
2023-01-07T08:56:22.925Z,98313.56
2023-01-07T08:59:24.555Z,98312.69
2023-01-07T09:02:26.238Z,98316.22
2023-01-07T09:05:27.793Z,98308.50
2023-01-07T09:08:29.330Z,98304.19
2023-01-07T09:11:30.861Z,98310.28
2023-01-07T09:14:32.405Z,98313.75
2023-01-07T09:17:33.910Z,98319.78
2023-01-07T09:20:35.589Z,98319.75
2023-01-07T09:23:37.205Z,98324.13
2023-01-07T09:26:38.710Z,98342.38
2023-01-07T09:29:40.895Z,98344.09
2023-01-07T09:32:43.213Z,98355.38
2023-01-07T09:35:44.644Z,98353.66
2023-01-07T09:38:46.137Z,98355.41
2023-01-07T09:41:53.567Z,98380.56
2023-01-07T09:45:34.835Z,98384.06
2023-01-07T09:48:44.151Z,98382.34
2023-01-07T09:51:48.531Z,98397.13
2023-01-07T09:54:53.489Z,98409.25
2023-01-07T09:57:55.035Z,98425.72
2023-01-07T10:01:24.786Z,98436.19
2023-01-07T10:04:50.398Z,98467.94
2023-01-07T10:08:30.714Z,98504.31
2023-01-07T10:12:00.509Z,98501.03
2023-01-07T10:15:29.864Z,98512.22
2023-01-07T10:18:41.578Z,98518.41
2023-01-07T10:21:52.195Z,98532.50
2023-01-07T10:24:57.435Z,98517.09
2023-01-07T10:28:00.442Z,98510.41
2023-01-07T10:31:01.982Z,98506.19
2023-01-07T10:34:06.010Z,98500.59
2023-01-07T10:37:11.763Z,98492.34
2023-01-07T10:40:32.148Z,98476.81
2023-01-07T10:43:37.745Z,98483.00
2023-01-07T10:46:57.471Z,98476.81
2023-01-07T10:50:21.225Z,98463.03
2023-01-07T10:53:49.439Z,98454.75
2023-01-07T10:56:53.187Z,98451.31
2023-01-07T10:59:56.431Z,98440.75
2023-01-07T11:02:58.907Z,98426.78
2023-01-07T11:06:04.570Z,98425.81
2023-01-07T11:09:09.047Z,98433.59
2023-01-07T11:12:25.808Z,98415.75
2023-01-07T11:15:44.208Z,98422.03
2023-01-07T11:18:55.074Z,98419.09
2023-01-07T11:21:56.601Z,98422.84
2023-01-07T11:24:58.511Z,98423.47
2023-01-07T11:28:01.945Z,98422.69
2023-01-07T11:31:03.490Z,98403.59
2023-01-07T11:34:05.261Z,98401.53
2023-01-07T11:37:06.831Z,98393.72
2023-01-07T11:40:14.772Z,98387.94
2023-01-07T11:43:16.204Z,98381.94
2023-01-07T11:46:19.955Z,98369.66
2023-01-07T11:49:28.127Z,98367.09
2023-01-07T11:52:29.623Z,98360.78
2023-01-07T11:55:31.250Z,98353.34
2023-01-07T11:58:46.884Z,98350.53
2023-01-07T12:01:50.123Z,98344.41
2023-01-07T12:04:51.665Z,98336.97
2023-01-07T12:07:53.260Z,98335.44
2023-01-07T12:10:56.028Z,98320.47
2023-01-07T12:13:57.751Z,98315.28
2023-01-07T12:17:16.076Z,98315.50
2023-01-07T12:20:36.033Z,98312.00
2023-01-07T12:23:44.545Z,98313.84
2023-01-07T12:27:11.277Z,98298.03
2023-01-07T12:30:31.352Z,98298.09
2023-01-07T12:33:48.148Z,98294.63
2023-01-07T12:36:54.608Z,98293.53
2023-01-07T12:40:10.894Z,98277.91
2023-01-07T12:43:23.582Z,98282.50
2023-01-07T12:46:25.191Z,98278.09
2023-01-07T12:49:29.862Z,98266.00
2023-01-07T12:52:41.619Z,98259.06
2023-01-07T12:55:46.110Z,98265.16
2023-01-07T12:59:07.115Z,98262.59
2023-01-07T13:02:48.638Z,98257.28
2023-01-07T13:05:56.338Z,98242.69
2023-01-07T13:08:58.867Z,98249.53
2023-01-07T13:12:43.042Z,98242.63
2023-01-07T13:15:45.062Z,98240.00
2023-01-07T13:18:46.651Z,98235.69
2023-01-07T13:21:48.238Z,98233.06
2023-01-07T13:25:14.813Z,98226.97
2023-01-07T13:28:48.984Z,98238.25
2023-01-07T13:32:15.490Z,98236.59
2023-01-07T13:35:38.971Z,98237.47
2023-01-07T13:39:11.997Z,98227.03
2023-01-07T13:42:39.037Z,98228.00
2023-01-07T13:45:40.751Z,98224.44
2023-01-07T13:48:50.255Z,98232.91
2023-01-07T13:51:51.882Z,98225.16
2023-01-07T13:54:58.228Z,98221.03
2023-01-07T13:57:59.889Z,98215.97
2023-01-07T14:01:17.859Z,98227.38
2023-01-07T14:04:48.085Z,98224.25
2023-01-07T14:08:00.453Z,98225.19
2023-01-07T19:41:57.713Z,97874.03
2023-01-07T19:44:59.259Z,97872.31
2023-01-07T19:48:00.885Z,97866.38
2023-01-07T19:51:03.705Z,97855.19
2023-01-07T19:54:05.379Z,97841.50
2023-01-07T19:57:06.905Z,97840.66
2023-01-07T20:00:09.262Z,97844.69
2023-01-07T20:03:11.175Z,97846.44
2023-01-07T20:06:14.381Z,97839.59
2023-01-07T20:09:15.922Z,97831.00
2023-01-07T20:12:17.427Z,97830.00
2023-01-07T20:15:19.328Z,97838.50
2023-01-07T20:18:21.241Z,97843.69
2023-01-07T20:21:25.418Z,97836.75
2023-01-07T20:24:27.052Z,97835.03
2023-01-07T20:27:28.621Z,97828.19
2023-01-07T20:30:30.200Z,97843.59
2023-01-07T20:33:31.739Z,97839.44
2023-01-07T20:36:33.264Z,97813.47
2023-01-07T20:39:37.634Z,97827.94
2023-01-07T20:42:39.138Z,97831.34
2023-01-07T20:45:40.764Z,97821.88
2023-01-07T20:48:42.309Z,97825.41
2023-01-07T20:51:43.862Z,97817.63
2023-01-07T20:54:47.261Z,97815.00
2023-01-07T20:57:48.968Z,97819.25
2023-01-07T21:00:50.651Z,97817.47
2023-01-07T21:03:54.262Z,97813.22
2023-01-07T21:06:58.594Z,97806.34
2023-01-07T21:10:00.135Z,97814.03
2023-01-07T21:13:01.653Z,97806.34
2023-01-07T21:16:04.058Z,97818.19
2023-01-07T21:19:05.681Z,97817.16
2023-01-07T21:22:07.198Z,97817.16
2023-01-07T21:25:11.170Z,97814.47
2023-01-07T21:28:13.016Z,97804.16
2023-01-07T21:31:15.432Z,97787.88
2023-01-07T21:34:17.375Z,97780.22
2023-01-07T21:37:18.889Z,97791.47
2023-01-07T21:40:20.872Z,97775.06
2023-01-07T21:43:22.390Z,97777.66
2023-01-07T21:46:23.964Z,97777.59
2023-01-07T21:49:25.564Z,97782.66
2023-01-07T21:52:27.076Z,97799.91
2023-01-07T21:55:30.956Z,97782.75
2023-01-07T21:58:32.566Z,97799.91
2023-01-07T22:01:34.872Z,97797.38
2023-01-07T22:04:40.657Z,97794.84
2023-01-07T22:07:42.196Z,97794.75
2023-01-07T22:10:48.221Z,97789.63
2023-01-07T22:13:57.095Z,97792.16
2023-01-07T22:16:58.637Z,97784.31
2023-01-07T22:20:00.282Z,97788.56
2023-01-07T22:23:01.832Z,97776.69
2023-01-07T22:26:04.768Z,97776.69
2023-01-07T22:29:06.946Z,97774.09
2023-01-07T22:32:12.916Z,97776.75
2023-01-07T22:35:14.804Z,97774.22
2023-01-07T22:38:16.319Z,97775.88
2023-01-07T22:41:17.970Z,97763.00
2023-01-07T22:44:22.335Z,97756.25
2023-01-07T22:47:26.711Z,97758.84
2023-01-07T22:50:28.293Z,97758.94
2023-01-07T22:53:30.008Z,97758.06
2023-01-07T22:56:32.494Z,97753.94
2023-01-07T22:59:35.653Z,97742.00
2023-01-07T23:02:37.204Z,97748.97
2023-01-07T23:05:39.807Z,97736.88
2023-01-07T23:08:41.365Z,97743.84
2023-01-07T23:11:48.837Z,97738.78
2023-01-07T23:14:50.367Z,97745.00
2023-01-07T23:17:51.929Z,97734.47
2023-01-07T23:20:53.484Z,97738.75
2023-01-07T23:23:55.005Z,97711.25
2023-01-07T23:26:57.324Z,97692.34
2023-01-07T23:29:58.932Z,97687.28
2023-01-07T23:33:00.479Z,97690.78
2023-01-07T23:36:06.291Z,97696.78
2023-01-07T23:39:07.832Z,97694.25
2023-01-07T23:42:09.351Z,97698.59
2023-01-07T23:45:11.244Z,97704.59
2023-01-07T23:48:12.729Z,97700.34
2023-01-07T23:51:15.911Z,97691.78
2023-01-07T23:54:17.460Z,97679.91
2023-01-07T23:57:18.988Z,97653.22
